INLO2: Newt Graham Lock And Dam (L&D 18)

Data processed at Thu Nov 09 2017 15:33


All information presented herein is the property of the government of the United States of America and may be revised or deleted at any time without prior notice.
Dissemination of this information without the expressed written consent of the Public Affairs Office, Tulsa District U.S. Army Corps of Engineers is strictly prohibited.
These data are gathered electronically and, as presented, have not undergone any form of quality control. These data are not guaranteed to be valid or correct.
Go to home page.
Go to station list.

Upstream stations:

Downstream station:
Previous Day
Next Day
Current Day
    
SHEF ID:       INLO2     Newt Graham Lock And Dam
STATION TYPE:  NAVIGATION LOCK
Normal Pool:  Bottom =   532.00, Top =   532.50

               PRECIP ELEVATION   STORAGE   TW-ELEV LOCK-ELEV    INFLOW   RELEASE    GATE-1    GATE-2    GATE-3  AIR-TEMP  WIND-DIRWIND-SPEED REL-HUMID SOLAR-RAD   VOLTAGE  BAT-LOAD
                   in        ft     ac-ft        ft        ft       cfs       cfs        ft        ft        ft         F       deg       mph         %      W/m2      volt      volt
              Ccp-Rev   Ccp-Rev   Ccp-Rev   Ccp-Rev   Ccp-Rev  Regi-Rev  Regi-Rev   Ccp-Rev   Ccp-Rev   Ccp-Rev   Ccp-Rev   Ccp-Rev   Ccp-Rev   Ccp-Rev   Ccp-Rev   Ccp-Rev   Ccp-Rev
(US/Central)
11/08 00:00      0.00    532.84     24784    512.11      ----       986      1023      ----      ----      ----     44.10     19.70      8.10     75.67      0.00     13.51     13.29
11/08 01:00      0.00    532.85     24799    512.10      ----       986      1023      ----      ----      ----     44.11     22.40      7.40     71.45      0.00     13.51     13.29
11/08 02:00      0.00    532.83     24768    512.10      ----       986      1023      ----      ----      ----     43.84     22.10      6.70     71.97      0.00     13.51     13.29
11/08 03:00      0.00    532.84     24784    512.11      ----      1023      1023      ----      ----      ----     43.95     18.10      6.40     72.20      0.00     13.51     13.29
11/08 04:00      0.00    532.84     24784    512.15      ----      1135      1023      ----      ----      ----     43.79     21.30      4.60     73.16      0.00     13.51     13.29
11/08 05:00      0.00    532.84     24784    512.11      ----      1098      1023      ----      ----      ----     43.74      9.70      4.50     75.14      0.00     13.51     13.29
11/08 06:00      0.00    532.88     24845    512.23      ----       986      1024      ----      ----      ----     43.63      8.90      5.40     76.01      0.00     13.51     13.29
11/08 07:00      0.00    532.85     24799    512.09      ----       949      1024      ----      ----      ----     43.30      3.60      6.80     76.14      0.00     13.51     13.29
11/08 08:00      0.00    532.83     24768    512.12      ----       986      1023      ----      ----      ----     42.44     11.50      6.70     76.62      7.90     13.51     13.29
11/08 09:00      0.00    532.82     24753      ----      ----       949      1023      ----      ----      ----     42.26     14.50      7.40     75.28     60.70     13.50     13.29
11/08 10:00      0.00    532.83     24768    512.02      ----      1172      1023      ----      ----      ----     43.25     20.30      7.60     70.81    133.90     13.51     13.29
11/08 11:00      0.00    532.86     24814    512.07      ----      1061      1023      ----      ----      ----     45.66     27.70      7.20     65.64    366.30     13.51     13.29
11/08 12:00      0.00    532.89     24861    512.13      ----       912      1024      ----      ----      ----     47.98     25.70      6.90     61.20    334.60     13.51     13.29
11/08 13:00      0.00    532.87     24830    512.14      ----      1471      1024      ----      ----      ----     50.09     26.00      6.10     57.58    419.40     13.51     13.29
11/08 14:00      0.00    532.79     24707    512.09      ----      1210      1023      ----      ----      ----     52.30     33.70      6.10     52.74    552.80     13.51     13.29
11/08 15:00      0.00    532.95     24953    512.06      ----       949      1024      ----      ----      ----     54.43     46.60      4.40     46.24    456.40     13.52     13.29
11/08 16:00      0.00    532.84     24784    512.13      ----      1024      1024      ----      ----      ----     55.53     30.40      3.90     44.66    297.20     13.51     13.29
11/08 17:00      0.00    532.87     24830    512.12      ----      1322      1024      ----      ----      ----     54.90     14.10      3.30     46.28    118.30     13.51     13.29
11/08 18:00      0.00    532.84     24784    512.03      ----       763      1024      ----      ----      ----     50.95     22.60      1.60     56.47      2.00     13.51     13.29
11/08 19:00      0.00    532.87     24830    512.06      ----       912      1024      ----      ----      ----     46.87     83.40      0.40     71.62      0.00     13.51     13.29
11/08 20:00      0.00    532.88     24845    512.10      ----      1173      1024      ----      ----      ----     42.96     33.30      1.50     82.73      0.00     13.51     13.29
11/08 21:00      0.00    532.88     24845    512.16      ----      1268      1024      ----      ----      ----     40.53     66.30      0.70     88.60      0.00     13.51     13.29
11/08 22:00      0.00    532.91     24891    512.09      ----       952      1024      ----      ----      ----     40.98     10.00      2.40     84.55      0.00     13.51     13.29
11/08 23:00      0.00    532.92     24907      ----      ----       710      1025      ----      ----      ----     39.51    356.60      0.20     87.81      0.00     13.51     13.29